createdAt,value
2022-11-24T00:01:15.448Z,16.93
2022-11-24T00:03:44.165Z,14.77
2022-11-24T00:06:14.268Z,14.77
2022-11-24T00:08:43.837Z,13.23
2022-11-24T00:11:13.892Z,14.03
2022-11-24T00:13:43.857Z,13.80
2022-11-24T00:16:13.621Z,11.07
2022-11-24T00:18:43.225Z,10.53
2022-11-24T00:21:11.699Z,13.27
2022-11-24T00:23:40.162Z,13.20
2022-11-24T00:26:10.134Z,14.87
2022-11-24T00:28:39.000Z,16.17
2022-11-24T00:31:18.153Z,14.57
2022-11-24T00:33:47.296Z,10.13
2022-11-24T00:36:16.062Z,17.57
2022-11-24T00:38:44.492Z,13.77
2022-11-24T00:41:12.947Z,12.30
2022-11-24T00:43:41.110Z,14.10
2022-11-24T00:46:10.568Z,14.93
2022-11-24T00:48:38.682Z,15.40
2022-11-24T00:51:08.559Z,15.97
2022-11-24T00:53:37.471Z,18.07
2022-11-24T00:56:06.283Z,15.80
2022-11-24T00:58:34.877Z,12.63
2022-11-24T01:01:04.933Z,15.10
2022-11-24T01:03:34.936Z,12.67
2022-11-24T01:06:07.582Z,15.83
2022-11-24T01:08:37.525Z,12.50
2022-11-24T01:11:10.194Z,16.37
2022-11-24T01:13:38.555Z,15.53
2022-11-24T01:16:06.996Z,16.47
2022-11-24T01:18:36.393Z,9.47
2022-11-24T01:21:09.793Z,9.17
2022-11-24T01:23:38.369Z,14.63
2022-11-24T01:26:07.939Z,13.57
2022-11-24T01:28:36.037Z,11.80
2022-11-24T01:31:06.766Z,8.37
2022-11-24T01:33:37.057Z,17.23
2022-11-24T01:36:06.245Z,10.00
2022-11-24T01:38:34.254Z,15.93
2022-11-24T01:41:03.512Z,12.43
2022-11-24T01:43:31.503Z,14.93
2022-11-24T01:46:05.417Z,14.63
2022-11-24T01:49:11.782Z,12.63
2022-11-24T01:51:44.107Z,13.40
2022-11-24T01:54:17.107Z,14.47
2022-11-24T01:56:48.576Z,13.40
2022-11-24T01:59:19.311Z,18.37
2022-11-24T02:01:50.789Z,15.63
2022-11-24T02:04:23.781Z,15.77
2022-11-24T02:06:55.021Z,14.43
2022-11-24T02:09:27.369Z,17.30
2022-11-24T02:11:55.832Z,13.53
2022-11-24T02:14:25.873Z,12.93
2022-11-24T02:16:53.982Z,12.67
2022-11-24T02:19:34.368Z,12.17
2022-11-24T02:22:05.261Z,10.93
2022-11-24T02:24:42.302Z,16.80
2022-11-24T02:27:12.615Z,13.47
2022-11-24T02:29:41.861Z,13.87
2022-11-24T02:32:12.283Z,12.77
2022-11-24T02:34:40.288Z,15.97
2022-11-24T02:37:08.284Z,19.83
2022-11-24T02:39:36.573Z,17.20
2022-11-24T02:42:09.125Z,13.60
2022-11-24T02:44:43.031Z,14.13
2022-11-24T02:47:13.329Z,15.27
2022-11-24T02:49:41.447Z,15.77
2022-11-24T02:52:09.895Z,18.83
2022-11-24T02:54:37.903Z,18.37
2022-11-24T02:57:06.086Z,17.97
2022-11-24T02:59:34.115Z,14.13
2022-11-24T03:02:03.843Z,12.53
2022-11-24T03:04:32.327Z,17.63
2022-11-24T03:07:00.594Z,18.73
2022-11-24T03:09:29.057Z,16.80
2022-11-24T03:11:57.071Z,13.67
2022-11-24T03:14:25.026Z,13.90
2022-11-24T03:16:52.995Z,16.90
2022-11-24T03:19:22.352Z,17.70
2022-11-24T03:21:50.339Z,16.47
2022-11-24T03:24:18.335Z,17.33
2022-11-24T03:26:46.309Z,17.10
2022-11-24T03:29:14.307Z,16.13
2022-11-24T03:31:42.412Z,20.00
2022-11-24T03:34:10.586Z,14.60
2022-11-24T03:36:40.009Z,18.83
2022-11-24T03:39:08.157Z,12.50
2022-11-24T03:41:36.123Z,18.87
2022-11-24T03:44:04.219Z,18.50
2022-11-24T03:46:32.276Z,15.57
2022-11-24T03:49:00.284Z,15.43
2022-11-24T03:51:28.276Z,22.10
2022-11-24T03:53:57.585Z,16.03
2022-11-24T03:56:25.584Z,21.07
2022-11-24T03:58:53.524Z,12.43
2022-11-24T04:01:21.691Z,19.23
2022-11-24T04:03:49.737Z,15.40
2022-11-24T04:06:17.767Z,18.03
2022-11-24T04:08:45.724Z,23.10
2022-11-24T04:11:35.083Z,17.43
2022-11-24T04:14:02.084Z,14.80
2022-11-24T04:16:29.940Z,17.13
2022-11-24T04:18:57.818Z,16.73
2022-11-24T04:21:25.632Z,22.37
2022-11-24T04:23:53.486Z,16.70
2022-11-24T04:26:22.674Z,16.80
2022-11-24T04:28:50.563Z,21.10
2022-11-24T04:31:18.809Z,15.47
2022-11-24T04:33:46.718Z,19.07
2022-11-24T04:36:14.544Z,18.30
2022-11-24T04:39:19.416Z,14.70
2022-11-24T04:41:31.569Z,18.40
2022-11-24T04:43:59.418Z,16.60
2022-11-24T04:46:27.331Z,17.57
2022-11-24T04:48:55.153Z,14.93
2022-11-24T04:51:23.014Z,15.63
2022-11-24T04:53:50.910Z,19.17
2022-11-24T04:56:18.730Z,19.73
2022-11-24T04:58:50.474Z,19.00
2022-11-24T05:01:18.346Z,20.47
2022-11-24T05:03:46.204Z,18.63
2022-11-24T05:06:14.170Z,22.13
2022-11-24T05:08:42.001Z,16.80
2022-11-24T05:11:09.834Z,19.70
2022-11-24T05:13:37.696Z,26.87
2022-11-24T05:16:07.479Z,23.98
2022-11-24T05:18:35.806Z,23.00
2022-11-24T05:21:03.618Z,19.23
2022-11-24T05:23:31.711Z,24.17
2022-11-24T05:26:00.773Z,19.77
2022-11-24T05:28:29.286Z,18.70
2022-11-24T05:31:00.552Z,20.37
2022-11-24T05:33:30.069Z,19.67
2022-11-24T05:36:02.446Z,13.27
2022-11-24T05:38:30.601Z,15.87
2022-11-24T05:41:01.556Z,13.20
2022-11-24T05:43:29.743Z,9.83
2022-11-24T05:46:00.156Z,9.97
2022-11-24T05:48:29.841Z,9.03
2022-11-24T05:50:58.716Z,11.97
2022-11-24T05:53:27.020Z,7.57
2022-11-24T05:55:55.076Z,14.03
2022-11-24T05:58:22.981Z,7.07
2022-11-24T06:00:51.084Z,7.70
2022-11-24T06:03:19.013Z,7.37
2022-11-24T06:05:48.609Z,8.60
2022-11-24T06:08:16.461Z,9.00
2022-11-24T06:10:44.346Z,7.27
2022-11-24T06:13:12.286Z,11.03
2022-11-24T06:15:40.845Z,6.40
2022-11-24T06:18:08.780Z,5.60
2022-11-24T06:20:36.723Z,5.27
2022-11-24T06:23:05.925Z,8.63
2022-11-24T06:25:33.777Z,6.33
2022-11-24T06:28:04.819Z,4.80
2022-11-24T06:30:32.702Z,7.07
2022-11-24T06:33:00.735Z,7.07
2022-11-24T06:35:28.566Z,4.67
2022-11-24T06:37:56.476Z,5.23
2022-11-24T06:40:25.708Z,5.13
2022-11-24T06:42:53.670Z,3.30
2022-11-24T06:45:21.533Z,4.33
2022-11-24T06:47:49.418Z,6.70
2022-11-24T06:50:17.601Z,5.90
2022-11-24T06:52:45.456Z,3.53
2022-11-24T06:55:13.313Z,10.40
2022-11-24T06:57:42.540Z,5.50
2022-11-24T07:00:11.502Z,5.63
2022-11-24T07:02:45.457Z,5.47
2022-11-24T07:05:13.890Z,3.67
2022-11-24T07:07:41.862Z,7.43
2022-11-24T07:10:09.963Z,4.03
2022-11-24T07:12:37.862Z,5.20
2022-11-24T07:15:08.746Z,4.60
2022-11-24T07:17:37.121Z,4.90
2022-11-24T07:20:06.960Z,6.10
2022-11-24T07:25:20.792Z,6.07
2022-11-24T07:27:48.708Z,6.83
2022-11-24T07:30:18.283Z,6.00
2022-11-24T07:32:46.558Z,4.13
2022-11-24T07:35:14.566Z,6.47
2022-11-24T07:37:42.448Z,7.30
2022-11-24T07:40:11.685Z,5.37
2022-11-24T07:42:39.495Z,6.85
2022-11-24T07:45:08.562Z,3.77
2022-11-24T07:47:41.375Z,7.50
2022-11-24T07:50:10.635Z,5.30
2022-11-24T07:52:39.233Z,6.60
2022-11-24T07:55:08.518Z,7.00
2022-11-24T07:57:36.503Z,6.53
2022-11-24T08:00:05.712Z,5.37
2022-11-24T08:02:34.157Z,8.27
2022-11-24T08:05:03.339Z,6.07
2022-11-24T08:07:31.397Z,5.77
2022-11-24T08:09:59.237Z,6.73
2022-11-24T08:12:27.073Z,6.33
2022-11-24T08:14:54.891Z,6.03
2022-11-24T08:17:22.784Z,7.37
2022-11-24T08:19:50.638Z,8.50
2022-11-24T08:22:19.802Z,9.77
2022-11-24T08:24:48.937Z,4.77
2022-11-24T08:27:17.241Z,8.13
2022-11-24T08:29:45.373Z,7.30
2022-11-24T08:32:18.856Z,6.97
2022-11-24T08:34:49.769Z,6.00
2022-11-24T08:37:18.941Z,7.77
2022-11-24T08:39:46.873Z,5.67
2022-11-24T08:42:14.762Z,8.57
2022-11-24T08:44:42.989Z,8.17
2022-11-24T08:47:10.858Z,9.80
2022-11-24T08:49:38.731Z,11.63
2022-11-24T08:52:06.744Z,7.50
2022-11-24T08:54:36.182Z,6.40
2022-11-24T08:57:04.217Z,7.77
2022-11-24T08:59:32.103Z,10.93
2022-11-24T09:02:00.067Z,6.53
2022-11-24T09:04:28.096Z,7.17
2022-11-24T09:06:56.038Z,7.77
2022-11-24T09:09:23.837Z,15.63
2022-11-24T09:11:53.007Z,9.17
2022-11-24T09:14:20.928Z,10.00
2022-11-24T09:16:48.844Z,7.80
2022-11-24T09:19:16.726Z,10.07
2022-11-24T09:21:44.589Z,8.13
2022-11-24T09:24:12.626Z,10.07
2022-11-24T09:26:46.088Z,9.80
2022-11-24T09:29:17.153Z,14.17
2022-11-24T09:31:45.028Z,7.33
2022-11-24T09:34:16.436Z,11.07
2022-11-24T09:36:44.600Z,9.93
2022-11-24T09:39:13.026Z,6.77
2022-11-24T09:41:58.185Z,11.67
2022-11-24T09:45:01.749Z,12.67
2022-11-24T09:47:40.077Z,8.80
2022-11-24T09:50:14.425Z,8.00
2022-11-24T09:52:49.295Z,10.13
2022-11-24T09:55:29.080Z,9.63
2022-11-24T09:58:07.314Z,9.77
2022-11-24T10:00:37.947Z,10.73
2022-11-24T10:03:07.098Z,7.23
2022-11-24T10:05:37.511Z,7.53
2022-11-24T10:08:22.199Z,10.17
2022-11-24T10:10:55.598Z,10.10
2022-11-24T10:13:34.583Z,8.53
2022-11-24T10:16:10.576Z,10.37
2022-11-24T10:18:49.537Z,8.70
2022-11-24T10:21:52.522Z,7.40
2022-11-24T10:24:41.505Z,12.43
2022-11-24T10:27:17.169Z,7.93
2022-11-24T10:29:45.312Z,8.00
2022-11-24T10:32:18.629Z,6.70
2022-11-24T10:34:48.717Z,9.30
2022-11-24T10:37:23.503Z,8.97
2022-11-24T10:40:00.776Z,11.83
2022-11-24T10:42:31.437Z,10.40
2022-11-24T10:45:04.050Z,9.97
2022-11-24T10:47:33.247Z,6.87
2022-11-24T10:50:05.386Z,12.27
2022-11-24T10:52:39.794Z,10.93
2022-11-24T10:55:08.490Z,13.20
2022-11-24T10:57:39.046Z,8.33
2022-11-24T11:00:33.893Z,9.83
2022-11-24T11:03:18.757Z,10.87
2022-11-24T11:05:51.723Z,11.80
2022-11-24T11:08:23.443Z,10.60
2022-11-24T11:10:53.723Z,8.93
2022-11-24T11:13:27.478Z,9.73
2022-11-24T11:15:56.329Z,9.27
2022-11-24T11:18:31.359Z,9.23
2022-11-24T11:21:02.061Z,11.67
2022-11-24T11:23:32.208Z,13.13
2022-11-24T11:26:18.363Z,11.20
2022-11-24T11:31:15.498Z,9.33
2022-11-24T11:34:49.022Z,9.27
2022-11-24T11:37:18.001Z,11.60
2022-11-24T11:39:49.195Z,11.03
2022-11-24T11:42:53.811Z,10.13
2022-11-24T11:45:15.827Z,10.03
2022-11-24T11:47:50.955Z,7.13
2022-11-24T11:50:26.306Z,11.57
2022-11-24T11:53:06.218Z,11.00
2022-11-24T11:55:50.410Z,8.00
2022-11-24T11:59:00.119Z,9.07
2022-11-24T12:01:51.418Z,7.20
2022-11-24T12:04:26.538Z,11.17
2022-11-24T12:07:17.802Z,9.60
2022-11-24T12:09:58.088Z,16.03
2022-11-24T12:13:01.237Z,9.10
2022-11-24T12:15:37.418Z,11.40
2022-11-24T12:18:40.655Z,11.87
2022-11-24T12:21:21.373Z,13.07
2022-11-24T12:24:04.811Z,14.53
2022-11-24T12:26:40.284Z,11.93
2022-11-24T12:29:46.665Z,11.70
2022-11-24T12:32:32.790Z,13.07
2022-11-24T12:35:12.479Z,11.13
2022-11-24T12:37:50.893Z,10.93
2022-11-24T12:40:39.757Z,11.57
2022-11-24T12:43:19.051Z,9.97
2022-11-24T12:45:56.664Z,9.50
2022-11-24T12:48:50.268Z,12.87
2022-11-24T12:51:20.289Z,10.77
2022-11-24T12:53:50.869Z,13.07
2022-11-24T12:56:30.214Z,12.97
2022-11-24T12:59:09.840Z,13.87
2022-11-24T13:01:44.627Z,12.27
2022-11-24T13:04:22.270Z,14.57
2022-11-24T13:06:56.442Z,11.17
2022-11-24T13:09:24.341Z,13.00
2022-11-24T13:11:59.159Z,12.97
2022-11-24T13:14:33.574Z,12.63
2022-11-24T13:19:51.159Z,9.60
2022-11-24T13:22:25.355Z,10.43
2022-11-24T13:25:14.474Z,12.27
2022-11-24T13:27:50.660Z,10.80
2022-11-24T13:30:56.441Z,13.90
2022-11-24T13:33:45.054Z,9.70
2022-11-24T13:36:48.479Z,12.53
2022-11-24T13:39:21.440Z,15.47
2022-11-24T13:42:10.372Z,16.60
2022-11-24T13:45:00.643Z,10.47
2022-11-24T13:47:37.175Z,12.40
2022-11-24T13:50:07.775Z,9.67
2022-11-24T13:52:50.946Z,13.03
2022-11-24T13:55:38.658Z,13.80
2022-11-24T13:58:30.716Z,9.00
2022-11-24T14:01:18.845Z,13.73
2022-11-24T14:06:59.010Z,10.07
2022-11-24T14:09:35.275Z,10.90
2022-11-24T14:12:13.984Z,14.67
2022-11-24T14:14:42.375Z,16.57
2022-11-24T14:17:20.733Z,9.20
2022-11-24T14:19:50.140Z,12.37
2022-11-24T14:22:20.996Z,11.10
2022-11-24T14:24:54.036Z,13.03
2022-11-24T14:27:30.474Z,11.27
2022-11-24T14:30:00.498Z,8.93
2022-11-24T14:32:30.157Z,12.17
2022-11-24T14:34:58.279Z,14.37
2022-11-24T14:37:26.281Z,9.03
2022-11-24T14:39:54.190Z,13.57
2022-11-24T14:42:24.008Z,11.47
2022-11-24T14:44:55.507Z,14.83
2022-11-24T14:47:31.302Z,10.60
2022-11-24T14:50:11.987Z,12.13
2022-11-24T14:52:46.689Z,8.97
2022-11-24T14:55:27.418Z,14.37
2022-11-24T14:57:55.358Z,8.40
2022-11-24T15:00:29.312Z,11.30
2022-11-24T15:03:14.279Z,16.20
2022-11-24T15:05:55.577Z,8.40
2022-11-24T15:08:24.489Z,14.63
2022-11-24T15:10:58.092Z,10.83
2022-11-24T15:13:26.874Z,10.00
2022-11-24T15:16:02.474Z,12.37
2022-11-24T15:18:37.470Z,12.07
2022-11-24T15:21:06.992Z,11.90
2022-11-24T15:23:36.006Z,14.97
2022-11-24T15:26:30.754Z,12.83
2022-11-24T15:29:00.946Z,12.67
2022-11-24T15:31:28.925Z,12.37
2022-11-24T15:33:56.799Z,11.27
2022-11-24T15:36:25.976Z,14.70
2022-11-24T15:38:53.789Z,12.70
2022-11-24T15:41:24.695Z,15.53
2022-11-24T15:43:58.689Z,14.13
2022-11-24T15:46:27.445Z,14.17
2022-11-24T15:48:55.386Z,12.60
2022-11-24T15:51:27.620Z,13.33
2022-11-24T15:54:01.190Z,10.30
2022-11-24T15:56:33.033Z,14.00
2022-11-24T15:59:01.401Z,12.37
2022-11-24T16:01:32.063Z,12.67
2022-11-24T16:04:00.385Z,11.97
2022-11-24T16:06:29.561Z,11.03
2022-11-24T16:08:58.076Z,10.97
2022-11-24T16:11:26.177Z,13.63
2022-11-24T16:13:54.669Z,12.03
2022-11-24T16:16:24.553Z,11.87
2022-11-24T16:18:52.635Z,13.77
2022-11-24T16:21:20.503Z,15.60
2022-11-24T16:23:49.721Z,10.20
2022-11-24T16:26:17.598Z,14.43
2022-11-24T16:28:45.808Z,12.67
2022-11-24T16:31:15.720Z,10.40
2022-11-24T16:33:44.696Z,11.83
2022-11-24T16:36:13.008Z,10.33
2022-11-24T16:38:40.866Z,15.30
2022-11-24T16:41:22.908Z,14.41
2022-11-24T16:43:50.770Z,9.63
2022-11-24T16:46:21.000Z,9.83
2022-11-24T16:48:50.824Z,17.10
2022-11-24T16:51:19.760Z,11.53
2022-11-24T16:53:47.882Z,10.03
2022-11-24T16:56:16.477Z,14.60
2022-11-24T16:58:45.714Z,15.47
2022-11-24T17:01:14.671Z,10.10
2022-11-24T17:03:42.752Z,15.73
2022-11-24T17:06:12.784Z,8.30
2022-11-24T17:08:41.539Z,11.17
2022-11-24T17:11:09.828Z,12.40
2022-11-24T17:13:37.957Z,13.27
2022-11-24T17:16:09.430Z,14.20
2022-11-24T17:18:38.509Z,11.53
2022-11-24T17:21:10.725Z,10.50
2022-11-24T17:23:39.135Z,11.43
2022-11-24T17:26:08.734Z,12.80
2022-11-24T17:28:37.318Z,10.10
2022-11-24T17:31:10.184Z,11.93
2022-11-24T17:33:38.058Z,13.63
2022-11-24T17:36:06.892Z,9.93
2022-11-24T17:38:35.944Z,10.90
2022-11-24T17:41:04.085Z,11.63
2022-11-24T17:43:31.931Z,11.00
2022-11-24T17:46:02.000Z,15.00
2022-11-24T17:48:31.848Z,12.57
2022-11-24T17:51:01.509Z,11.07
2022-11-24T17:53:29.473Z,13.10
2022-11-24T17:56:00.729Z,11.47
2022-11-24T17:58:29.124Z,13.17
2022-11-24T18:00:57.364Z,13.13
2022-11-24T18:03:28.517Z,11.80
2022-11-24T18:05:57.778Z,8.50
2022-11-24T18:08:25.581Z,15.37
2022-11-24T18:10:53.378Z,9.37
2022-11-24T18:13:41.127Z,13.73
2022-11-24T18:16:12.431Z,9.17
2022-11-24T18:18:41.452Z,11.30
2022-11-24T18:21:14.749Z,11.90
2022-11-24T18:23:43.368Z,12.47
2022-11-24T18:26:14.770Z,11.17
2022-11-24T18:28:43.057Z,13.30
2022-11-24T18:31:13.245Z,12.33
2022-11-24T18:33:42.674Z,8.73
2022-11-24T18:36:14.823Z,14.80
2022-11-24T18:38:43.059Z,13.03
2022-11-24T18:41:13.134Z,13.20
2022-11-24T18:43:41.539Z,12.40
2022-11-24T18:46:11.975Z,12.47
2022-11-24T18:48:40.035Z,10.63
2022-11-24T18:51:08.618Z,10.03
2022-11-24T18:53:37.845Z,11.07
2022-11-24T18:56:07.825Z,10.77
2022-11-24T18:58:36.428Z,9.70
2022-11-24T19:01:08.954Z,9.87
2022-11-24T19:03:41.340Z,11.87
2022-11-24T19:06:14.856Z,13.33
2022-11-24T19:08:44.950Z,8.37
2022-11-24T19:11:18.093Z,13.83
2022-11-24T19:13:47.480Z,11.90
2022-11-24T19:16:15.929Z,11.53
2022-11-24T19:18:47.510Z,13.87
2022-11-24T19:21:18.445Z,10.27
2022-11-24T19:23:47.605Z,10.70
2022-11-24T19:26:16.372Z,10.07
2022-11-24T19:28:44.844Z,10.17
2022-11-24T19:31:14.149Z,8.83
2022-11-24T19:33:42.486Z,12.80
2022-11-24T19:36:13.872Z,12.30
2022-11-24T19:38:42.553Z,14.50
2022-11-24T19:41:13.917Z,12.30
2022-11-24T19:43:42.513Z,13.63
2022-11-24T19:46:12.882Z,12.40
2022-11-24T19:48:42.894Z,13.20
2022-11-24T19:51:13.738Z,9.93
2022-11-24T19:53:42.771Z,13.20
2022-11-24T19:56:13.774Z,13.73
2022-11-24T19:58:42.522Z,11.30
2022-11-24T20:01:12.382Z,12.53
2022-11-24T20:03:41.402Z,13.87
2022-11-24T20:06:11.021Z,14.63
2022-11-24T20:08:40.086Z,10.33
2022-11-24T20:11:10.049Z,15.37
2022-11-24T20:13:41.222Z,13.43
2022-11-24T20:16:11.009Z,9.87
2022-11-24T20:18:42.238Z,11.30
2022-11-24T20:21:13.037Z,10.73
2022-11-24T20:23:42.230Z,15.47
2022-11-24T20:26:11.743Z,13.77
2022-11-24T20:28:41.302Z,11.77
2022-11-24T20:31:10.902Z,11.33
2022-11-24T20:33:40.678Z,12.27
2022-11-24T20:36:10.615Z,12.00
2022-11-24T20:38:40.090Z,12.90
2022-11-24T20:41:10.353Z,12.83
2022-11-24T20:43:40.271Z,11.17
2022-11-24T20:46:10.214Z,11.57
2022-11-24T20:48:38.728Z,11.13
2022-11-24T20:51:08.397Z,11.97
2022-11-24T20:53:36.871Z,12.60
2022-11-24T20:56:06.506Z,9.90
2022-11-24T20:58:35.629Z,12.03
2022-11-24T21:01:10.223Z,16.07
2022-11-24T21:03:43.072Z,16.00
2022-11-24T21:06:13.670Z,13.93
2022-11-24T21:08:43.037Z,13.00
2022-11-24T21:11:12.478Z,12.80
2022-11-24T21:13:42.461Z,12.10
2022-11-24T21:16:16.255Z,12.27
2022-11-24T21:18:45.097Z,12.23
2022-11-24T21:21:13.824Z,11.90
2022-11-24T21:23:41.749Z,16.47
2022-11-24T21:26:16.214Z,15.30
2022-11-24T21:28:46.567Z,15.27
2022-11-24T21:31:18.741Z,13.13
2022-11-24T21:33:48.245Z,13.53
2022-11-24T21:36:18.421Z,13.60
2022-11-24T21:38:51.258Z,11.60
2022-11-24T21:41:20.221Z,11.67
2022-11-24T21:43:48.500Z,16.23
2022-11-24T21:46:18.074Z,9.27
2022-11-24T21:48:46.148Z,14.30
2022-11-24T21:51:15.412Z,14.27
2022-11-24T21:53:44.729Z,11.07
2022-11-24T21:56:14.397Z,13.20
2022-11-24T21:58:47.131Z,11.63
2022-11-24T22:01:17.433Z,12.73
2022-11-24T22:03:45.718Z,7.47
2022-11-24T22:06:14.085Z,14.83
2022-11-24T22:08:41.995Z,10.73
2022-11-24T22:11:13.532Z,11.30
2022-11-24T22:13:41.923Z,10.93
2022-11-24T22:16:12.068Z,8.93
2022-11-24T22:18:43.471Z,14.37
2022-11-24T22:21:13.822Z,10.77
2022-11-24T22:23:41.926Z,9.77
2022-11-24T22:26:13.512Z,8.57
2022-11-24T22:28:41.863Z,11.17
2022-11-24T22:31:12.531Z,11.10
2022-11-24T22:33:42.073Z,13.07
2022-11-24T22:36:11.720Z,14.80
2022-11-24T22:38:40.365Z,9.70
2022-11-24T22:41:09.610Z,10.50
2022-11-24T22:43:39.045Z,8.07
2022-11-24T22:46:09.269Z,8.53
2022-11-24T22:48:37.463Z,8.83
2022-11-24T22:51:08.412Z,13.43
2022-11-24T22:53:36.560Z,9.70
2022-11-24T22:56:05.605Z,12.57
2022-11-24T22:58:34.310Z,12.70
2022-11-24T23:01:06.181Z,12.73
2022-11-24T23:03:34.650Z,11.93
2022-11-24T23:06:03.083Z,10.37
2022-11-24T23:08:33.998Z,10.03
2022-11-24T23:11:02.981Z,11.60
2022-11-24T23:13:31.103Z,10.83
2022-11-24T23:16:02.939Z,8.80
2022-11-24T23:18:31.441Z,8.57
2022-11-24T23:21:05.858Z,7.50
2022-11-24T23:23:36.401Z,9.30
2022-11-24T23:26:06.449Z,13.43
2022-11-24T23:28:34.880Z,11.60
2022-11-24T23:31:03.945Z,9.07
2022-11-24T23:33:32.434Z,9.60
2022-11-24T23:36:02.449Z,11.27
2022-11-24T23:38:32.591Z,8.63
2022-11-24T23:41:04.333Z,11.10
2022-11-24T23:43:32.302Z,10.57
2022-11-24T23:46:03.802Z,10.27
2022-11-24T23:48:32.378Z,9.73
2022-11-24T23:51:04.860Z,10.57
2022-11-24T23:53:33.029Z,10.57
2022-11-24T23:56:02.901Z,13.57
2022-11-24T23:58:31.378Z,9.27
